1.71 0.79
as at 1 April 2015


Welshpool Mid Wales Airport lies in the beautiful Severn valley and is on the edge of some of the most stunning open flying country anywhere in the UK.

runway04dusk

Developed from the 1990s onwards, the airport is now a home for numerous business and light aircraft. It is also the base for the Mid Wales Air Ambulance. Here you can get lessons and gain a licence flying helicopters, fixed wing aircraft and microlights. You could also just come along and watch the comings and goings of a busy general aviation hub.

Bob Jones Memorial Airshow 2015 - thanks!

Thanks to all the visitors to this year's Bob Jones Memorial Airshow. We hope you enjoyed it as much as we did.

Thank you also to all our volunteers and helpers. We wouldn't have been able to do it without your hard work.

We look forward to seeing you all again soon!

Mostly Cloudy

13°C

Welshpool

Mostly Cloudy

Wind: 22.53 km/h

SHAWBURY
METAR: EGOS 080150Z AUTO 21007KT 9999 BKN010/// SCT022/// 13/12 Q1004 =
TAF: TAF EGOS 071947Z 0721/0803 22010KT 9999 SCT030 BECMG 0721/0724 BKN020 TEMPO 0721/0802 22014G20KT TEMPO 0723/0803 6000 -RADZ PROB30 TEMPO 0800/0802 SCT012 BKN018 BECMG 0801/0803 25010KT =
SR / SS: 03:59 / 20:35 UTC
Here is the collection of friv yepi. . Gun games play online free gun games. . Removals to France by Hunts International